Time;durP1;ratioP1;P1;durP2;ratioP2;P2;SDS_P1;SDS_P2;PMS_P1;PMS_P2;Temp;Humidity;BMP_temperature;BMP_pressure;BME280_temperature;BME280_humidity;BME280_pressure;Samples;Min_cycle;Max_cycle;Signal;HPM_P1;HPM_P2
2022/09/10 00:00:16;;;;;;;;;;;;;;;22.04;28.14;97924.31;5038587;28;1971;-77
2022/09/10 00:02:43;;;;;;;;;;;;;;;21.99;28.11;97932.59;5038203;28;874;-78
2022/09/10 00:05:11;;;;;;;;;;;;;;;21.91;28.21;97925.53;5038193;28;857;-77
2022/09/10 00:07:36;;;;;;;;;;;;;;;21.77;28.37;97926.75;5038192;28;900;-77
2022/09/10 00:10:02;;;;;;;;;;;;;;;21.69;28.54;97920.47;5038248;28;1298;-77
2022/09/10 00:12:27;;;;;;;;;;;;;;;21.75;28.72;97929.22;5004588;28;1155;-78
2022/09/10 00:14:53;;;;;;;;;;;;;;;21.52;29.13;97922.56;5038139;28;865;-78
2022/09/10 00:17:18;;;;;;;;;;;;;;;21.56;29.02;97920.44;5020328;28;889;-77
2022/09/10 00:19:44;;;;;;;;;;;;;;;22.18;27.95;97928.03;5019819;28;1967;-78
2022/09/10 00:22:10;;;;;;;;;;;;;;;22.18;28.15;97928.81;5020467;28;928;-77
2022/09/10 00:24:35;;;;;;;;;;;;;;;21.99;28.45;97926.91;5019122;28;1373;-78
2022/09/10 00:27:01;;;;;;;;;;;;;;;21.90;28.46;97919.06;5037599;28;981;-78
2022/09/10 00:29:27;;;;;;;;;;;;;;;21.93;28.54;97934.38;5037480;28;893;-77
2022/09/10 00:31:53;;;;;;;;;;;;;;;21.78;28.52;97934.78;5020112;28;982;-78
2022/09/10 00:34:19;;;;;;;;;;;;;;;21.69;28.87;97937.47;5037780;28;900;-78
2022/09/10 00:36:45;;;;;;;;;;;;;;;21.69;28.84;97931.81;5037490;28;1410;-78
2022/09/10 00:39:14;;;;;;;;;;;;;;;21.73;28.76;97920.38;5037583;28;1901;-77
2022/09/10 00:41:40;;;;;;;;;;;;;;;21.74;28.31;97922.75;5003867;28;1268;-78
2022/09/10 00:44:07;;;;;;;;;;;;;;;22.07;28.15;97914.13;5020050;28;926;-77
2022/09/10 00:46:34;;;;;;;;;;;;;;;22.49;27.32;97914.09;5003591;28;1155;-77
2022/09/10 00:49:01;;;;;;;;;;;;;;;22.34;27.45;97925.88;5003339;28;1227;-78
2022/09/10 00:51:29;;;;;;;;;;;;;;;21.98;28.34;97916.84;5019163;28;1286;-78
2022/09/10 00:53:55;;;;;;;;;;;;;;;21.95;28.47;97920.56;5004045;28;1384;-78
2022/09/10 00:56:21;;;;;;;;;;;;;;;22.07;27.92;97911.28;5019683;28;910;-77
2022/09/10 00:58:47;;;;;;;;;;;;;;;21.76;28.44;97908.97;5003618;28;2036;-77
2022/09/10 01:01:13;;;;;;;;;;;;;;;21.68;28.62;97907.56;5012840;28;1336;-77
2022/09/10 01:03:38;;;;;;;;;;;;;;;21.71;28.52;97903.84;5016269;28;1093;-78
2022/09/10 01:06:04;;;;;;;;;;;;;;;21.67;28.75;97905.97;5016644;28;1123;-77
2022/09/10 01:08:30;;;;;;;;;;;;;;;21.85;28.25;97906.25;5017744;28;930;-78
2022/09/10 01:10:55;;;;;;;;;;;;;;;21.77;28.30;97901.25;5016730;28;1356;-78
2022/09/10 01:13:21;;;;;;;;;;;;;;;21.89;28.51;97894.81;5016297;28;1131;-77
2022/09/10 01:15:49;;;;;;;;;;;;;;;22.29;27.88;97898.09;5022088;28;1354;-78
2022/09/10 01:18:33;;;;;;;;;;;;;;;22.22;27.70;97900.34;5003144;28;1139;-78
2022/09/10 01:21:29;;;;;;;;;;;;;;;22.08;28.16;97898.72;5019200;28;1065;-77
2022/09/10 01:23:56;;;;;;;;;;;;;;;21.78;28.77;97895.13;4940681;29;1048;-78
2022/09/10 01:26:26;;;;;;;;;;;;;;;21.82;28.32;97895.84;4956581;29;837;-78
2022/09/10 01:29:00;;;;;;;;;;;;;;;21.88;28.27;97892.44;4921119;29;1416;-78
2022/09/10 01:31:46;;;;;;;;;;;;;;;21.90;28.45;97890.75;4902337;29;1269;-78
2022/09/10 01:34:23;;;;;;;;;;;;;;;21.83;28.36;97886.09;4918737;29;1103;-77
2022/09/10 01:36:50;;;;;;;;;;;;;;;21.71;28.80;97878.38;4918351;29;1020;-77
2022/09/10 01:39:16;;;;;;;;;;;;;;;22.03;28.07;97873.78;4902586;29;1976;-77
2022/09/10 01:41:42;;;;;;;;;;;;;;;22.34;27.85;97874.84;4902262;29;1332;-77
2022/09/10 01:44:09;;;;;;;;;;;;;;;22.17;28.05;97887.53;4917159;29;1423;-77
2022/09/10 01:46:42;;;;;;;;;;;;;;;21.95;28.53;97875.22;4902956;29;1350;-78
2022/09/10 01:49:20;;;;;;;;;;;;;;;21.87;28.61;97879.53;4918310;29;977;-78
2022/09/10 01:52:05;;;;;;;;;;;;;;;21.89;28.27;97871.38;4916933;29;1286;-78
2022/09/10 01:54:39;;;;;;;;;;;;;;;21.91;28.14;97875.31;4918471;29;981;-78
2022/09/10 01:57:22;;;;;;;;;;;;;;;21.85;28.55;97877.94;4902508;29;1268;-78
2022/09/10 01:59:59;;;;;;;;;;;;;;;21.66;28.84;97873.25;4924128;28;2031;-78
2022/09/10 02:02:43;;;;;;;;;;;;;;;22.15;28.20;97875.06;4979369;28;1151;-77
2022/09/10 02:05:09;;;;;;;;;;;;;;;22.24;27.67;97870.31;5014778;28;983;-77
2022/09/10 02:07:36;;;;;;;;;;;;;;;22.16;27.89;97871.78;4940102;29;1599;-77
2022/09/10 02:10:03;;;;;;;;;;;;;;;21.92;28.59;97862.00;4956314;28;1237;-78
2022/09/10 02:12:32;;;;;;;;;;;;;;;21.91;28.30;97860.38;4933810;29;1179;-77
2022/09/10 02:15:24;;;;;;;;;;;;;;;21.81;28.60;97857.44;4916077;29;1474;-78
2022/09/10 02:17:56;;;;;;;;;;;;;;;21.73;28.81;97864.53;4917303;29;1152;-78
2022/09/10 02:20:21;;;;;;;;;;;;;;;21.68;28.61;97862.25;4901908;29;1982;-78
2022/09/10 02:22:53;;;;;;;;;;;;;;;21.69;28.53;97860.22;4917570;29;1231;-78
2022/09/10 02:25:19;;;;;;;;;;;;;;;21.93;28.59;97849.41;4917921;29;1271;-78
2022/09/10 02:27:44;;;;;;;;;;;;;;;22.30;27.60;97851.50;4917936;29;1079;-77
2022/09/10 02:30:10;;;;;;;;;;;;;;;22.05;28.15;97852.25;4902422;29;1453;-78
2022/09/10 02:32:36;;;;;;;;;;;;;;;22.05;27.89;97848.63;4917840;29;992;-78
2022/09/10 02:35:01;;;;;;;;;;;;;;;21.92;28.20;97850.66;4917892;29;921;-78
2022/09/10 02:37:27;;;;;;;;;;;;;;;21.77;28.63;97853.91;4919672;29;1275;-77
2022/09/10 02:39:54;;;;;;;;;;;;;;;21.89;28.37;97852.34;4939999;29;1994;-78
2022/09/10 02:42:19;;;;;;;;;;;;;;;21.74;28.47;97846.31;4960450;28;1449;-77
2022/09/10 02:44:46;;;;;;;;;;;;;;;21.77;28.38;97848.25;4994069;28;1220;-78
2022/09/10 02:47:12;;;;;;;;;;;;;;;21.71;28.81;97844.38;4978833;28;1286;-77
2022/09/10 02:49:38;;;;;;;;;;;;;;;21.60;28.84;97843.88;4986264;28;1304;-77
2022/09/10 02:55:53;;;;;;;;;;;;;;;22.23;27.77;97839.59;4977823;28;1263;-78
2022/09/10 02:58:18;;;;;;;;;;;;;;;22.33;27.43;97844.94;4963036;28;1162;-77
2022/09/10 03:00:44;;;;;;;;;;;;;;;22.06;27.87;97836.03;4978351;28;1910;-78
2022/09/10 03:03:10;;;;;;;;;;;;;;;21.89;28.51;97832.50;4978442;28;1232;-78
2022/09/10 03:05:37;;;;;;;;;;;;;;;21.62;28.59;97840.63;4978794;28;851;-77
2022/09/10 03:08:04;;;;;;;;;;;;;;;21.84;28.46;97838.72;4978890;28;1203;-78
2022/09/10 03:10:30;;;;;;;;;;;;;;;21.92;28.14;97839.31;4966038;28;1456;-78
2022/09/10 03:12:56;;;;;;;;;;;;;;;21.63;28.91;97842.19;4958643;28;1384;-78
2022/09/10 03:15:22;;;;;;;;;;;;;;;21.84;28.43;97836.69;4959022;28;1438;-78
2022/09/10 03:17:48;;;;;;;;;;;;;;;22.22;27.96;97833.13;4959064;28;1070;-77
2022/09/10 03:20:14;;;;;;;;;;;;;;;22.22;27.75;97832.31;4958963;28;1977;-77
2022/09/10 03:22:39;;;;;;;;;;;;;;;22.01;28.37;97843.06;4988471;28;1132;-78
2022/09/10 03:25:06;;;;;;;;;;;;;;;21.92;28.20;97845.00;4978523;28;1125;-77
2022/09/10 03:27:33;;;;;;;;;;;;;;;21.93;28.29;97832.41;4993288;28;1382;-78
2022/09/10 03:29:59;;;;;;;;;;;;;;;21.96;28.41;97832.28;4945388;28;1281;-78
2022/09/10 03:32:26;;;;;;;;;;;;;;;21.75;28.52;97839.38;4978390;28;1196;-77
2022/09/10 03:34:52;;;;;;;;;;;;;;;21.70;28.46;97842.78;4945751;28;1548;-77
2022/09/10 03:37:18;;;;;;;;;;;;;;;21.62;28.73;97844.25;4977903;28;1025;-77
2022/09/10 03:39:43;;;;;;;;;;;;;;;21.63;28.58;97842.19;4978679;28;2005;-77
2022/09/10 03:42:09;;;;;;;;;;;;;;;21.75;28.74;97839.38;4976999;28;1141;-77
2022/09/10 03:44:35;;;;;;;;;;;;;;;21.68;28.52;97844.47;4948524;28;1345;-78
2022/09/10 03:47:01;;;;;;;;;;;;;;;22.18;27.85;97849.47;4964959;28;1107;-77
2022/09/10 03:49:26;;;;;;;;;;;;;;;22.26;27.72;97850.81;4961816;28;1139;-78
2022/09/10 03:51:52;;;;;;;;;;;;;;;22.19;27.72;97851.03;4977505;28;1225;-77
2022/09/10 03:54:18;;;;;;;;;;;;;;;21.87;28.61;97851.22;4979952;28;1316;-77
2022/09/10 03:56:44;;;;;;;;;;;;;;;22.05;28.13;97855.06;4976516;28;1480;-77
2022/09/10 03:59:12;;;;;;;;;;;;;;;21.89;28.42;97848.72;4961701;28;1902;-78
2022/09/10 04:01:38;;;;;;;;;;;;;;;21.75;28.82;97855.59;4961504;28;1137;-77
2022/09/10 04:04:05;;;;;;;;;;;;;;;21.79;28.47;97847.78;4948585;28;1617;-77
2022/09/10 04:06:33;;;;;;;;;;;;;;;21.90;28.19;97855.97;4996274;28;908;-77
2022/09/10 04:09:00;;;;;;;;;;;;;;;21.68;28.56;97858.63;4980391;28;1225;-77
2022/09/10 04:11:29;;;;;;;;;;;;;;;22.02;28.22;97858.81;4980590;28;1275;-78
2022/09/10 04:13:56;;;;;;;;;;;;;;;22.34;27.65;97862.72;4964858;28;1286;-77
2022/09/10 04:16:23;;;;;;;;;;;;;;;22.14;27.85;97862.94;4957908;29;1076;-77
2022/09/10 04:18:49;;;;;;;;;;;;;;;21.85;28.38;97860.13;4957424;29;1906;-77
2022/09/10 04:21:15;;;;;;;;;;;;;;;21.83;28.32;97865.47;4957345;28;1284;-77
2022/09/10 04:23:41;;;;;;;;;;;;;;;21.87;28.70;97862.53;4957982;29;1172;-77
2022/09/10 04:26:13;;;;;;;;;;;;;;;21.66;28.61;97870.41;4977639;28;1120;-77
2022/09/10 04:28:39;;;;;;;;;;;;;;;21.70;28.63;97856.94;4960894;28;1366;-78
2022/09/10 04:31:05;;;;;;;;;;;;;;;21.83;28.38;97860.59;4993085;28;1439;-77
2022/09/10 04:33:32;;;;;;;;;;;;;;;21.63;28.73;97868.47;4993091;28;1132;-77
2022/09/10 04:35:59;;;;;;;;;;;;;;;21.76;28.45;97869.31;4976911;28;1167;-78
2022/09/10 04:38:29;;;;;;;;;;;;;;;22.10;28.19;97870.72;4993082;28;1209;-77
2022/09/10 04:40:59;;;;;;;;;;;;;;;22.38;27.79;97871.09;4976762;28;1906;-78
2022/09/10 04:43:25;;;;;;;;;;;;;;;22.25;27.81;97877.56;4976624;28;1017;-78
2022/09/10 04:45:51;;;;;;;;;;;;;;;22.15;28.16;97872.25;4976926;28;1124;-77
2022/09/10 04:48:17;;;;;;;;;;;;;;;21.91;28.16;97871.72;4997579;28;1246;-77
2022/09/10 04:50:43;;;;;;;;;;;;;;;21.78;28.63;97866.81;5006764;28;1231;-77
2022/09/10 04:53:14;;;;;;;;;;;;;;;21.79;28.84;97861.94;5019585;28;1389;-77
2022/09/10 04:55:41;;;;;;;;;;;;;;;21.75;28.55;97873.38;4998910;28;1459;-77
2022/09/10 04:58:07;;;;;;;;;;;;;;;21.82;28.64;97867.50;4995604;28;1229;-77
2022/09/10 05:00:33;;;;;;;;;;;;;;;21.87;28.47;97879.53;4979466;28;1906;-77
2022/09/10 05:02:58;;;;;;;;;;;;;;;22.29;27.99;97872.59;4979440;28;904;-78
2022/09/10 05:05:24;;;;;;;;;;;;;;;22.21;28.04;97881.75;4979352;28;1144;-77
2022/09/10 05:07:51;;;;;;;;;;;;;;;22.23;28.00;97879.28;4979623;28;1157;-77
2022/09/10 05:10:17;;;;;;;;;;;;;;;21.74;28.74;97880.28;4995757;28;992;-77
2022/09/10 05:12:43;;;;;;;;;;;;;;;21.87;28.44;97874.66;4947025;28;1570;-77
2022/09/10 05:15:10;;;;;;;;;;;;;;;21.83;28.57;97865.47;4963793;28;1235;-77
2022/09/10 05:17:35;;;;;;;;;;;;;;;21.85;28.72;97863.75;4962758;28;959;-77
2022/09/10 05:20:02;;;;;;;;;;;;;;;21.75;28.59;97862.03;4963048;28;1903;-77
2022/09/10 05:22:30;;;;;;;;;;;;;;;21.75;28.74;97862.03;4978860;28;1574;-77
2022/09/10 05:24:56;;;;;;;;;;;;;;;21.77;28.43;97859.56;4979691;28;1176;-77
2022/09/10 05:27:22;;;;;;;;;;;;;;;22.00;28.39;97857.69;4963535;28;1152;-77
2022/09/10 05:29:47;;;;;;;;;;;;;;;22.31;28.14;97853.06;5027362;28;1048;-77
2022/09/10 05:32:14;;;;;;;;;;;;;;;22.27;28.20;97845.94;5035810;28;1400;-77
2022/09/10 05:34:39;;;;;;;;;;;;;;;22.15;28.05;97850.34;5018944;28;900;-77
2022/09/10 05:37:07;;;;;;;;;;;;;;;22.07;28.66;97846.13;5019078;28;1230;-77
2022/09/10 05:39:34;;;;;;;;;;;;;;;21.89;28.77;97848.72;5018756;28;1894;-77
2022/09/10 05:42:00;;;;;;;;;;;;;;;21.80;28.79;97853.00;5018834;28;1659;-78
2022/09/10 05:44:26;;;;;;;;;;;;;;;21.64;29.33;97855.91;5037441;28;1209;-77
2022/09/10 05:46:52;;;;;;;;;;;;;;;21.66;28.97;97861.94;5037857;28;1260;-77
2022/09/10 05:49:17;;;;;;;;;;;;;;;21.61;29.11;97851.16;5054591;28;1174;-77
2022/09/10 05:51:43;;;;;;;;;;;;;;;21.66;28.99;97856.25;5017872;28;1271;-77
2022/09/10 05:54:10;;;;;;;;;;;;;;;21.87;29.14;97856.88;5034303;28;1368;-78
2022/09/10 05:56:36;;;;;;;;;;;;;;;22.34;28.13;97852.19;5018098;28;1188;-77
2022/09/10 05:59:02;;;;;;;;;;;;;;;22.31;27.95;97844.56;4985210;28;1910;-78
2022/09/10 06:01:30;;;;;;;;;;;;;;;22.17;28.64;97855.56;4985819;28;1225;-78
2022/09/10 06:03:57;;;;;;;;;;;;;;;21.95;28.98;97852.56;4970204;28;1247;-78
2022/09/10 06:06:27;;;;;;;;;;;;;;;21.94;29.02;97851.00;4972766;28;1414;-78
2022/09/10 06:08:58;;;;;;;;;;;;;;;21.84;29.11;97850.84;4978877;28;1074;-78
2022/09/10 06:11:42;;;;;;;;;;;;;;;21.94;28.92;97862.31;4978614;28;1203;-78
2022/09/10 06:14:08;;;;;;;;;;;;;;;21.84;29.15;97853.69;4978930;28;1320;-77
2022/09/10 06:16:34;;;;;;;;;;;;;;;21.74;29.01;97854.78;4959794;28;1334;-77
2022/09/10 06:19:01;;;;;;;;;;;;;;;21.79;29.00;97856.28;4978080;28;1906;-78
2022/09/10 06:21:28;;;;;;;;;;;;;;;21.82;29.27;97855.41;4963471;28;1397;-77
2022/09/10 06:23:55;;;;;;;;;;;;;;;21.78;28.94;97860.38;4979137;28;1199;-77
2022/09/10 06:26:22;;;;;;;;;;;;;;;21.67;29.15;97866.34;4978796;28;1218;-77
2022/09/10 06:28:52;;;;;;;;;;;;;;;21.44;29.50;97858.09;4979193;28;1304;-77
2022/09/10 06:31:18;;;;;;;;;;;;;;;21.65;29.19;97853.84;4979231;28;1444;-78
2022/09/10 06:33:50;;;;;;;;;;;;;;;22.34;28.60;97857.84;5003028;28;1219;-77
2022/09/10 06:36:19;;;;;;;;;;;;;;;22.24;28.30;97858.97;5003772;28;1119;-78
2022/09/10 06:38:46;;;;;;;;;;;;;;;22.12;28.58;97862.59;5002583;28;1906;-78
2022/09/10 06:41:12;;;;;;;;;;;;;;;22.10;28.74;97853.72;5020178;28;887;-77
2022/09/10 06:43:45;;;;;;;;;;;;;;;21.84;29.11;97855.72;5003352;28;1371;-77
2022/09/10 06:46:31;;;;;;;;;;;;;;;21.77;29.22;97853.91;4965562;28;1072;-77
2022/09/10 06:49:09;;;;;;;;;;;;;;;21.81;29.46;97843.28;4978862;28;1135;-77
2022/09/10 06:51:35;;;;;;;;;;;;;;;21.82;29.11;97849.72;4978542;28;1194;-77
2022/09/10 06:54:02;;;;;;;;;;;;;;;21.92;29.30;97850.66;4978935;28;1196;-77
2022/09/10 06:56:28;;;;;;;;;;;;;;;21.82;29.38;97839.19;4978395;28;1290;-77
2022/09/10 06:58:56;;;;;;;;;;;;;;;21.71;29.29;97844.38;4978224;28;1914;-77
2022/09/10 07:01:24;;;;;;;;;;;;;;;21.77;29.20;97845.41;4978630;28;1203;-77
2022/09/10 07:03:57;;;;;;;;;;;;;;;21.75;29.10;97828.06;4978488;28;1183;-77
2022/09/10 07:06:23;;;;;;;;;;;;;;;21.69;29.32;97840.41;4978272;28;1322;-77
2022/09/10 07:08:53;;;;;;;;;;;;;;;21.74;29.09;97843.47;4962776;28;1115;-77
2022/09/10 07:11:18;;;;;;;;;;;;;;;21.84;29.23;97848.03;4962297;28;1078;-78
2022/09/10 07:13:45;;;;;;;;;;;;;;;21.75;29.42;97845.06;4978429;28;1116;-77
2022/09/10 07:16:10;;;;;;;;;;;;;;;22.12;29.01;97856.13;4975740;28;1259;-78
2022/09/10 07:18:36;;;;;;;;;;;;;;;22.27;28.80;97845.94;4962319;28;1572;-77
2022/09/10 07:21:05;;;;;;;;;;;;;;;22.20;28.71;97851.84;4962355;28;1918;-78
2022/09/10 07:23:32;;;;;;;;;;;;;;;21.98;29.17;97852.47;4972159;28;1159;-77
2022/09/10 07:26:04;;;;;;;;;;;;;;;21.87;29.57;97854.03;4994570;28;1369;-77
2022/09/10 07:28:41;;;;;;;;;;;;;;;21.89;29.38;97848.72;4992260;28;1132;-77
2022/09/10 07:31:13;;;;;;;;;;;;;;;21.90;29.35;97856.75;4994525;28;1221;-77
2022/09/10 07:33:40;;;;;;;;;;;;;;;21.98;29.33;97863.00;4994401;28;1350;-78
2022/09/10 07:36:05;;;;;;;;;;;;;;;21.95;29.08;97861.84;4994285;28;1063;-77
2022/09/10 07:38:31;;;;;;;;;;;;;;;21.91;29.16;97857.53;4994320;28;1273;-77
2022/09/10 07:40:58;;;;;;;;;;;;;;;21.82;29.42;97850.53;4994200;28;1902;-77
2022/09/10 07:43:24;;;;;;;;;;;;;;;21.75;29.25;97855.59;5003586;28;1449;-77
2022/09/10 07:45:51;;;;;;;;;;;;;;;21.79;29.34;97862.75;5001020;28;1088;-78
2022/09/10 07:48:16;;;;;;;;;;;;;;;21.75;29.63;97850.72;5016893;28;1063;-77
2022/09/10 07:50:44;;;;;;;;;;;;;;;21.68;29.69;97850.94;4999623;28;1480;-77
2022/09/10 07:53:12;;;;;;;;;;;;;;;22.09;29.42;97849.31;5015825;28;1386;-77
2022/09/10 07:55:38;;;;;;;;;;;;;;;22.29;28.75;97855.59;5015663;28;1226;-78
2022/09/10 07:58:05;;;;;;;;;;;;;;;22.36;28.59;97848.88;4999012;28;1452;-77
2022/09/10 08:00:30;;;;;;;;;;;;;;;22.02;29.13;97841.00;4982695;28;1987;-78
2022/09/10 08:03:02;;;;;;;;;;;;;;;21.99;29.38;97847.59;5015546;28;1013;-78
2022/09/10 08:05:28;;;;;;;;;;;;;;;21.97;29.24;97844.44;5015119;28;1321;-77
2022/09/10 08:07:54;;;;;;;;;;;;;;;21.84;29.66;97835.91;5015493;28;1200;-77
2022/09/10 08:10:20;;;;;;;;;;;;;;;21.84;29.70;97842.34;5015443;28;1032;-77
2022/09/10 08:12:48;;;;;;;;;;;;;;;21.90;29.34;97847.47;4982749;28;1273;-78
2022/09/10 08:15:14;;;;;;;;;;;;;;;21.83;29.59;97846.44;5014886;28;1286;-77
2022/09/10 08:17:40;;;;;;;;;;;;;;;21.76;29.50;97846.66;4982529;28;1234;-77
2022/09/10 08:20:08;;;;;;;;;;;;;;;21.87;29.37;97846.34;4979185;28;1973;-77
2022/09/10 08:22:36;;;;;;;;;;;;;;;21.82;29.42;97847.69;4995761;28;1095;-77
2022/09/10 08:25:02;;;;;;;;;;;;;;;21.62;29.71;97841.41;4979267;28;1308;-77
2022/09/10 08:27:30;;;;;;;;;;;;;;;21.69;29.52;97846.06;4979129;28;1147;-78
2022/09/10 08:29:56;;;;;;;;;;;;;;;21.73;29.61;97855.25;4995702;28;1314;-76
2022/09/10 08:32:23;;;;;;;;;;;;;;;21.58;29.69;97852.03;4995356;28;1190;-77
2022/09/10 08:34:48;;;;;;;;;;;;;;;21.98;29.74;97846.00;4978985;28;1085;-77
2022/09/10 08:37:15;;;;;;;;;;;;;;;22.34;29.05;97832.34;4995471;28;981;-77
2022/09/10 08:39:41;;;;;;;;;;;;;;;22.85;28.27;97829.44;5010953;28;1915;-77
2022/09/10 08:42:10;;;;;;;;;;;;;;;22.34;28.72;97843.69;4994442;28;1296;-78
2022/09/10 08:44:53;;;;;;;;;;;;;;;21.94;29.45;97851.00;4978800;28;1168;-77
2022/09/10 08:47:28;;;;;;;;;;;;;;;21.93;29.88;97843.75;5038004;28;1179;-77
2022/09/10 08:50:00;;;;;;;;;;;;;;;21.98;29.65;97840.34;4979151;28;1209885;-77
2022/09/10 08:52:28;;;;;;;;;;;;;;;21.81;29.73;97837.59;5022647;28;1140;-77
2022/09/10 08:55:03;;;;;;;;;;;;;;;22.00;29.36;97837.84;5022275;28;1199;-77
2022/09/10 08:57:34;;;;;;;;;;;;;;;21.83;29.97;97829.44;5038771;28;868;-78
2022/09/10 08:59:59;;;;;;;;;;;;;;;21.95;29.68;97824.25;5054840;28;1902;-78
2022/09/10 09:02:29;;;;;;;;;;;;;;;21.89;29.54;97820.38;5038658;28;1234;-78
2022/09/10 09:05:01;;;;;;;;;;;;;;;21.82;29.86;97805.19;5022453;28;1197;-78
2022/09/10 09:07:30;;;;;;;;;;;;;;;21.88;29.43;97807.47;5022237;28;1211;-78
2022/09/10 09:09:56;;;;;;;;;;;;;;;21.79;29.67;97800.44;5022263;28;1179;-77
2022/09/10 09:12:37;;;;;;;;;;;;;;;21.92;29.37;97797.63;5054703;28;1312;-77
2022/09/10 09:15:11;;;;;;;;;;;;;;;21.76;29.61;97795.69;5021686;28;1289;-78
2022/09/10 09:17:38;;;;;;;;;;;;;;;21.79;29.45;97791.94;5038005;28;1063;-78
2022/09/10 09:20:04;;;;;;;;;;;;;;;21.65;29.74;97781.03;5037804;28;1906;-77
2022/09/10 09:22:34;;;;;;;;;;;;;;;21.63;30.07;97783.53;5035404;28;1332;-78
2022/09/10 09:25:08;;;;;;;;;;;;;;;21.84;29.49;97777.22;5027217;28;1115;-77
2022/09/10 09:27:35;;;;;;;;;;;;;;;21.79;29.52;97774.94;5003353;28;1142;-77
2022/09/10 09:30:00;;;;;;;;;;;;;;;21.80;29.60;97778.56;5003101;28;1176;-78
2022/09/10 09:32:27;;;;;;;;;;;;;;;21.74;29.61;97769.84;5019842;28;1210;-77
2022/09/10 09:35:13;;;;;;;;;;;;;;;21.81;29.80;97768.81;5003406;28;1479;-77
2022/09/10 09:37:39;;;;;;;;;;;;;;;21.68;29.89;97760.31;5019319;28;1267;-77
2022/09/10 09:40:13;;;;;;;;;;;;;;;22.23;29.74;97754.59;5002534;28;1985;-78
2022/09/10 09:42:48;;;;;;;;;;;;;;;22.35;29.19;97750.94;5019006;28;1088;-78
2022/09/10 09:45:22;;;;;;;;;;;;;;;22.12;29.49;97754.91;5019263;28;887;-77
2022/09/10 09:47:49;;;;;;;;;;;;;;;22.16;29.55;97764.09;5018802;28;1272;-78
2022/09/10 09:50:17;;;;;;;;;;;;;;;22.06;29.85;97756.69;5002396;28;1123;-78
2022/09/10 09:52:43;;;;;;;;;;;;;;;21.90;29.83;97753.97;5021088;28;842;-78
2022/09/10 09:55:18;;;;;;;;;;;;;;;21.80;29.96;97756.69;5023075;28;853;-77
2022/09/10 09:57:46;;;;;;;;;;;;;;;21.82;29.94;97762.72;5022948;28;931;-77
2022/09/10 10:00:30;;;;;;;;;;;;;;;21.77;29.93;97757.63;5022943;28;1914;-78
2022/09/10 10:02:55;;;;;;;;;;;;;;;21.91;30.04;97750.69;5040365;28;850;-78
2022/09/10 10:05:21;;;;;;;;;;;;;;;21.83;29.79;97761.47;5022933;28;888;-78
2022/09/10 10:07:46;;;;;;;;;;;;;;;21.74;29.82;97741.53;5040286;28;825;-77
2022/09/10 10:10:12;;;;;;;;;;;;;;;21.91;29.69;97753.53;5022431;28;857;-78
2022/09/10 10:12:38;;;;;;;;;;;;;;;21.77;29.73;97757.63;5037402;28;974;-78
2022/09/10 10:15:03;;;;;;;;;;;;;;;21.79;29.69;97746.63;5019676;28;934;-78
2022/09/10 10:17:36;;;;;;;;;;;;;;;21.75;29.90;97747.97;5021056;28;838;-77
2022/09/10 10:20:19;;;;;;;;;;;;;;;21.88;29.67;97750.81;5020727;28;1914;-78
2022/09/10 10:22:45;;;;;;;;;;;;;;;21.78;29.80;97753.53;5017562;28;745;-78
2022/09/10 10:25:29;;;;;;;;;;;;;;;21.82;29.87;97751.38;5020701;28;852;-78
2022/09/10 10:27:55;;;;;;;;;;;;;;;21.87;29.64;97746.41;5020118;28;859;-77
2022/09/10 10:30:21;;;;;;;;;;;;;;;21.71;29.77;97736.78;5020817;28;871;-77
2022/09/10 10:32:54;;;;;;;;;;;;;;;22.23;29.82;97743.25;5020548;28;893;-78
2022/09/10 10:35:23;;;;;;;;;;;;;;;22.37;29.33;97737.06;5002747;28;1049;-77
2022/09/10 10:37:55;;;;;;;;;;;;;;;22.12;29.74;97734.28;5020139;28;924;-78
2022/09/10 10:40:42;;;;;;;;;;;;;;;22.12;29.60;97723.72;5019943;28;1927;-78
2022/09/10 10:43:07;;;;;;;;;;;;;;;21.88;29.94;97717.63;5020171;28;931;-78
2022/09/10 10:45:36;;;;;;;;;;;;;;;21.91;30.04;97715.91;5020020;28;850;-77
2022/09/10 10:48:04;;;;;;;;;;;;;;;21.90;29.92;97714.34;5003359;28;1650;-77
2022/09/10 10:50:41;;;;;;;;;;;;;;;21.84;30.19;97717.72;5019997;28;1061;-77
2022/09/10 10:53:07;;;;;;;;;;;;;;;21.85;30.26;97716.47;5002432;28;803;-77
2022/09/10 10:55:32;;;;;;;;;;;;;;;21.89;29.91;97701.41;5019907;28;1066;-77
2022/09/10 10:58:08;;;;;;;;;;;;;;;21.79;29.85;97712.63;5019885;28;850;-77
2022/09/10 11:00:45;;;;;;;;;;;;;;;21.73;30.11;97711.63;5002188;28;1910;-77
2022/09/10 11:03:10;;;;;;;;;;;;;;;21.76;29.88;97702.22;5001799;28;879;-77
2022/09/10 11:05:37;;;;;;;;;;;;;;;21.80;29.89;97702.88;5018770;28;1128;-77
2022/09/10 11:08:04;;;;;;;;;;;;;;;21.79;29.82;97704.13;5002424;28;873;-77
2022/09/10 11:10:29;;;;;;;;;;;;;;;21.80;29.89;97700.06;5019877;28;786;-77
2022/09/10 11:13:14;;;;;;;;;;;;;;;21.92;29.61;97706.19;5019462;28;838;-77
2022/09/10 11:15:42;;;;;;;;;;;;;;;21.74;29.75;97707.53;5019609;28;861;-78
2022/09/10 11:18:13;;;;;;;;;;;;;;;21.71;30.06;97696.31;5019898;28;856;-77
2022/09/10 11:20:48;;;;;;;;;;;;;;;21.79;29.92;97701.31;5019077;28;1969;-77
2022/09/10 11:23:31;;;;;;;;;;;;;;;21.73;29.95;97705.16;5002441;28;810;-77
2022/09/10 11:26:01;;;;;;;;;;;;;;;21.88;30.36;97702.69;5002301;28;933;-78
2022/09/10 11:28:29;;;;;;;;;;;;;;;22.26;29.63;97705.47;5001837;28;879;-77
2022/09/10 11:30:57;;;;;;;;;;;;;;;22.18;29.85;97719.09;4968561;28;917;-77
2022/09/10 11:33:24;;;;;;;;;;;;;;;22.18;29.97;97713.44;5001675;28;910;-77
2022/09/10 11:35:55;;;;;;;;;;;;;;;22.05;29.71;97709.78;5001542;28;787;-78
2022/09/10 11:38:31;;;;;;;;;;;;;;;21.95;29.92;97705.25;5001461;28;949;-78
2022/09/10 11:40:57;;;;;;;;;;;;;;;21.91;30.24;97708.19;5001717;28;1910;-78
2022/09/10 11:43:42;;;;;;;;;;;;;;;21.94;29.94;97709.34;5019553;28;962;-77
2022/09/10 11:46:15;;;;;;;;;;;;;;;21.78;30.16;97705.38;5001513;28;932;-78
2022/09/10 11:48:41;;;;;;;;;;;;;;;21.68;30.64;97700.84;5018646;28;815;-78
2022/09/10 11:51:10;;;;;;;;;;;;;;;21.76;30.21;97696.56;5001428;28;1247;-78
2022/09/10 11:53:36;;;;;;;;;;;;;;;21.92;30.28;97689.97;5018777;28;908;-77
2022/09/10 11:56:04;;;;;;;;;;;;;;;22.02;29.91;97690.84;5018992;28;946;-77
2022/09/10 11:58:30;;;;;;;;;;;;;;;21.79;30.14;97681.47;5019029;28;1116;-77
2022/09/10 12:01:02;;;;;;;;;;;;;;;21.71;30.32;97680.13;5019049;28;1914;-78
2022/09/10 12:03:31;;;;;;;;;;;;;;;21.69;30.23;97682.63;5001147;28;896;-78
2022/09/10 12:06:06;;;;;;;;;;;;;;;21.89;29.83;97667.44;5018734;28;949;-78
2022/09/10 12:08:37;;;;;;;;;;;;;;;21.74;30.00;97673.56;5001283;28;1008;-78
2022/09/10 12:11:23;;;;;;;;;;;;;;;21.71;30.03;97659.50;5001055;28;907;-77
2022/09/10 12:13:49;;;;;;;;;;;;;;;21.70;30.12;97660.75;5018914;28;858;-77
2022/09/10 12:16:33;;;;;;;;;;;;;;;21.74;29.90;97662.22;5000118;28;857;-78
2022/09/10 12:18:59;;;;;;;;;;;;;;;21.88;29.71;97651.69;5018236;28;1898;-77
2022/09/10 12:21:27;;;;;;;;;;;;;;;21.68;29.91;97652.72;5000603;28;928;-78
2022/09/10 12:23:53;;;;;;;;;;;;;;;21.91;29.82;97653.59;5000942;28;1018;-77
2022/09/10 12:26:19;;;;;;;;;;;;;;;21.84;29.84;97649.75;5001499;28;945;-78
2022/09/10 12:28:48;;;;;;;;;;;;;;;21.90;29.96;97652.00;5017830;28;900;-78
2022/09/10 12:31:17;;;;;;;;;;;;;;;21.92;30.24;97635.38;5017998;28;891;-78
2022/09/10 12:33:42;;;;;;;;;;;;;;;21.99;30.86;97646.44;5018211;28;901;-78
2022/09/10 12:36:08;;;;;;;;;;;;;;;22.39;30.02;97632.53;5018200;28;887;-77
2022/09/10 12:38:43;;;;;;;;;;;;;;;22.26;29.92;97628.94;5017896;28;891;-77
2022/09/10 12:41:09;;;;;;;;;;;;;;;21.96;30.61;97624.69;5017843;28;1913;-77
2022/09/10 12:43:38;;;;;;;;;;;;;;;21.95;30.39;97625.94;5000583;28;826;-78
2022/09/10 12:46:06;;;;;;;;;;;;;;;21.97;30.23;97620.63;5018283;28;1059;-78
2022/09/10 12:48:33;;;;;;;;;;;;;;;21.89;30.44;97622.09;5017685;28;871;-78
2022/09/10 12:50:59;;;;;;;;;;;;;;;21.91;30.19;97608.28;5000407;28;1027;-78
2022/09/10 12:53:30;;;;;;;;;;;;;;;21.94;30.09;97616.66;5000213;28;835;-78
2022/09/10 12:56:00;;;;;;;;;;;;;;;22.00;29.90;97614.81;5017931;28;865;-78
2022/09/10 12:58:35;;;;;;;;;;;;;;;21.94;29.84;97618.69;5000444;28;840;-78
2022/09/10 13:01:10;;;;;;;;;;;;;;;21.74;30.55;97611.25;5016468;28;1906;-78
2022/09/10 13:03:36;;;;;;;;;;;;;;;21.71;30.25;97608.53;5000284;28;900;-77
2022/09/10 13:06:03;;;;;;;;;;;;;;;21.85;29.95;97589.03;4960189;28;947;-77
2022/09/10 13:08:37;;;;;;;;;;;;;;;21.77;29.97;97604.69;4976410;28;1349;-77
2022/09/10 13:11:05;;;;;;;;;;;;;;;21.68;29.97;97601.75;4960211;28;1048;-77